Time;durP1;ratioP1;P1;durP2;ratioP2;P2;SDS_P1;SDS_P2;PMS_P1;PMS_P2;Temp;Humidity;BMP_temperature;BMP_pressure;BME280_temperature;BME280_humidity;BME280_pressure;Samples;Min_cycle;Max_cycle;Signal;HPM_P1;HPM_P2
2023/12/30 00:00:29;;;;;;;9.27;0.38;;;;;;;;;;5155919;27;20054;-71
2023/12/30 00:02:55;;;;;;;7.20;0.57;;;;;;;;;;5155335;27;20039;-71
2023/12/30 00:05:23;;;;;;;5.63;0.50;;;;;;;;;;5155626;27;20051;-71
2023/12/30 00:07:50;;;;;;;9.60;0.52;;;;;;;;;;5155784;27;20055;-71
2023/12/30 00:10:16;;;;;;;5.85;0.30;;;;;;;;;;5120446;27;20074;-71
2023/12/30 00:12:42;;;;;;;5.07;0.40;;;;;;;;;;5155768;27;20088;-71
2023/12/30 00:15:08;;;;;;;6.03;0.40;;;;;;;;;;5137373;27;20478;-71
2023/12/30 00:17:34;;;;;;;12.20;0.97;;;;;;;;;;5154964;27;20054;-70
2023/12/30 00:20:00;;;;;;;4.75;0.60;;;;;;;;;;5136659;27;20055;-69
2023/12/30 00:22:26;;;;;;;9.40;0.40;;;;;;;;;;5155974;27;20497;-69
2023/12/30 00:24:52;;;;;;;11.07;0.65;;;;;;;;;;5155497;27;20046;-70
2023/12/30 00:27:18;;;;;;;9.63;0.55;;;;;;;;;;5155485;27;20057;-70
2023/12/30 00:29:45;;;;;;;10.48;0.40;;;;;;;;;;5155479;27;20042;-70
2023/12/30 00:32:11;;;;;;;7.90;0.40;;;;;;;;;;5136933;27;20043;-70
2023/12/30 00:34:37;;;;;;;7.40;0.40;;;;;;;;;;5156227;27;20069;-70
2023/12/30 00:37:03;;;;;;;10.23;0.47;;;;;;;;;;5136956;27;20046;-70
2023/12/30 00:39:29;;;;;;;8.05;0.50;;;;;;;;;;5155298;27;20507;-69
2023/12/30 00:41:55;;;;;;;8.45;0.60;;;;;;;;;;5120249;27;20046;-72
2023/12/30 00:44:21;;;;;;;6.80;0.47;;;;;;;;;;5155243;27;20138;-70
2023/12/30 00:46:47;;;;;;;12.73;0.50;;;;;;;;;;5155227;27;20050;-71
2023/12/30 00:49:15;;;;;;;5.45;0.30;;;;;;;;;;5102985;27;20456;-72
2023/12/30 00:51:41;;;;;;;6.50;0.98;;;;;;;;;;5136702;27;20545;-70
2023/12/30 00:54:07;;;;;;;7.75;0.60;;;;;;;;;;5155137;27;20049;-71
2023/12/30 00:56:33;;;;;;;9.70;1.27;;;;;;;;;;5136926;27;20047;-70
2023/12/30 00:58:59;;;;;;;8.27;1.15;;;;;;;;;;5137154;27;20042;-70
2023/12/30 01:01:25;;;;;;;7.53;0.77;;;;;;;;;;5155371;27;20042;-72
2023/12/30 01:03:51;;;;;;;2.38;0.47;;;;;;;;;;5136638;27;20039;-70
2023/12/30 01:06:17;;;;;;;7.22;0.60;;;;;;;;;;5136484;27;20054;-71
2023/12/30 01:08:43;;;;;;;5.63;0.50;;;;;;;;;;5136672;27;20061;-70
2023/12/30 01:11:11;;;;;;;8.18;0.40;;;;;;;;;;5155797;27;20181;-70
2023/12/30 01:13:37;;;;;;;4.60;0.60;;;;;;;;;;5155006;27;20042;-70
2023/12/30 01:16:06;;;;;;;7.00;0.50;;;;;;;;;;5158317;27;20042;-70
2023/12/30 01:18:32;;;;;;;6.70;0.50;;;;;;;;;;5141240;27;20050;-71
2023/12/30 01:20:59;;;;;;;8.43;0.50;;;;;;;;;;5159539;27;20135;-70
2023/12/30 01:23:25;;;;;;;8.48;1.42;;;;;;;;;;5158645;27;20058;-69
2023/12/30 01:25:51;;;;;;;8.35;0.43;;;;;;;;;;5157673;27;20059;-70
2023/12/30 01:28:17;;;;;;;9.35;0.50;;;;;;;;;;5158829;27;20050;-70
2023/12/30 01:30:43;;;;;;;8.00;0.40;;;;;;;;;;5140373;27;20049;-70
2023/12/30 01:33:10;;;;;;;10.05;1.05;;;;;;;;;;5123516;27;20082;-70
2023/12/30 01:35:36;;;;;;;6.88;0.30;;;;;;;;;;5140458;27;20054;-71
2023/12/30 01:38:03;;;;;;;6.43;0.30;;;;;;;;;;5140736;27;20400;-71
2023/12/30 01:40:29;;;;;;;7.05;0.40;;;;;;;;;;5157679;27;20054;-71
2023/12/30 01:42:55;;;;;;;10.90;0.63;;;;;;;;;;5158673;27;20043;-71
2023/12/30 01:45:21;;;;;;;4.50;0.52;;;;;;;;;;5159109;27;20046;-71
2023/12/30 01:47:47;;;;;;;5.50;0.43;;;;;;;;;;5140531;27;20047;-71
2023/12/30 01:50:13;;;;;;;9.07;0.60;;;;;;;;;;5158991;27;20042;-69
2023/12/30 01:52:39;;;;;;;6.30;0.73;;;;;;;;;;5158382;27;20054;-69
2023/12/30 01:55:07;;;;;;;4.75;0.40;;;;;;;;;;5123899;27;20054;-72
2023/12/30 01:57:33;;;;;;;13.90;0.68;;;;;;;;;;5158091;27;20043;-70
2023/12/30 02:00:01;;;;;;;8.05;0.50;;;;;;;;;;5158498;27;20554;-71
2023/12/30 02:02:27;;;;;;;;;;;;;;;;;;5140177;27;20069;-71
2023/12/30 02:04:53;;;;;;;9.68;0.50;;;;;;;;;;5122612;27;19919;-70
2023/12/30 02:07:19;;;;;;;6.97;0.40;;;;;;;;;;5158423;27;20379;-70
2023/12/30 02:09:45;;;;;;;6.35;0.60;;;;;;;;;;5122719;27;20421;-71
2023/12/30 02:12:12;;;;;;;8.65;0.68;;;;;;;;;;5158037;27;20054;-70
2023/12/30 02:14:38;;;;;;;5.95;0.30;;;;;;;;;;5140297;27;20058;-71
2023/12/30 02:17:04;;;;;;;7.78;0.38;;;;;;;;;;5158721;27;20382;-71
2023/12/30 02:19:30;;;;;;;6.15;0.40;;;;;;;;;;5157992;27;20053;-71
2023/12/30 02:21:56;;;;;;;5.40;0.60;;;;;;;;;;5139866;27;20039;-70
2023/12/30 02:24:22;;;;;;;3.72;0.50;;;;;;;;;;5140000;27;20051;-71
2023/12/30 02:26:48;;;;;;;12.48;0.60;;;;;;;;;;5140111;27;20366;-70
2023/12/30 02:29:14;;;;;;;6.55;0.70;;;;;;;;;;5122558;27;20042;-71
2023/12/30 02:31:47;;;;;;;9.20;0.55;;;;;;;;;;5139538;27;20398;-70
2023/12/30 02:34:17;;;;;;;11.13;0.50;;;;;;;;;;5139196;27;20045;-71
2023/12/30 02:36:44;;;;;;;3.65;0.25;;;;;;;;;;5139215;27;20046;-70
2023/12/30 02:39:10;;;;;;;4.05;0.28;;;;;;;;;;5139582;27;20498;-71
2023/12/30 02:41:36;;;;;;;10.30;0.52;;;;;;;;;;5122262;27;20366;-71
2023/12/30 02:44:03;;;;;;;7.22;0.50;;;;;;;;;;5158050;27;20089;-71
2023/12/30 02:46:29;;;;;;;4.85;0.40;;;;;;;;;;5157522;27;20435;-71
2023/12/30 02:48:57;;;;;;;8.30;0.77;;;;;;;;;;5157421;27;20076;-70
2023/12/30 02:51:24;;;;;;;11.90;0.55;;;;;;;;;;5138995;27;20089;-71
2023/12/30 02:53:50;;;;;;;8.30;0.40;;;;;;;;;;5157656;27;20385;-71
2023/12/30 02:56:23;;;;;;;7.38;0.60;;;;;;;;;;5138820;27;20134;-71
2023/12/30 02:58:50;;;;;;;8.60;0.60;;;;;;;;;;5138751;27;20042;-71
2023/12/30 03:01:16;;;;;;;5.50;0.40;;;;;;;;;;5138833;27;20050;-72
2023/12/30 03:03:42;;;;;;;8.98;0.82;;;;;;;;;;5157023;27;20043;-72
2023/12/30 03:06:09;;;;;;;10.95;0.70;;;;;;;;;;5138372;27;20050;-71
2023/12/30 03:08:35;;;;;;;5.43;0.30;;;;;;;;;;5139163;27;20050;-71
2023/12/30 03:11:03;;;;;;;11.77;1.42;;;;;;;;;;5138494;27;20093;-71
2023/12/30 03:13:29;;;;;;;5.07;0.50;;;;;;;;;;5156534;27;20142;-71
2023/12/30 03:15:55;;;;;;;14.65;0.57;;;;;;;;;;5122402;27;20134;-72
2023/12/30 03:18:22;;;;;;;8.93;1.02;;;;;;;;;;5157586;27;20150;-71
2023/12/30 03:20:48;;;;;;;10.63;0.63;;;;;;;;;;5138834;27;20039;-70
2023/12/30 03:23:14;;;;;;;5.95;0.50;;;;;;;;;;5156624;27;20046;-72
2023/12/30 03:25:40;;;;;;;6.57;0.55;;;;;;;;;;5156658;27;20511;-71
2023/12/30 03:28:06;;;;;;;10.52;0.50;;;;;;;;;;5139116;27;20154;-71
2023/12/30 03:30:32;;;;;;;8.30;0.85;;;;;;;;;;5156701;27;20413;-70
2023/12/30 03:32:58;;;;;;;5.93;0.30;;;;;;;;;;5156444;27;20035;-71
2023/12/30 03:35:26;;;;;;;5.38;0.50;;;;;;;;;;5138382;27;20046;-71
2023/12/30 03:37:52;;;;;;;7.82;0.50;;;;;;;;;;5137833;27;20490;-71
2023/12/30 03:40:18;;;;;;;7.00;1.30;;;;;;;;;;5137984;27;20041;-72
2023/12/30 03:42:44;;;;;;;9.52;0.40;;;;;;;;;;5121068;27;20042;-71
2023/12/30 03:45:10;;;;;;;8.50;0.40;;;;;;;;;;5121741;27;20050;-71
2023/12/30 03:47:36;;;;;;;13.75;0.47;;;;;;;;;;5138753;27;20047;-71
2023/12/30 03:50:02;;;;;;;5.50;0.40;;;;;;;;;;5156156;27;20042;-73
2023/12/30 03:52:29;;;;;;;8.93;0.40;;;;;;;;;;5121582;27;20050;-71
2023/12/30 03:54:55;;;;;;;;;;;;;;;;;;5138828;27;20086;-70
2023/12/30 03:57:22;;;;;;;6.20;0.40;;;;;;;;;;5137578;27;19919;-71
2023/12/30 03:59:48;;;;;;;9.27;0.57;;;;;;;;;;5138274;27;20133;-72
2023/12/30 04:02:18;;;;;;;8.23;0.82;;;;;;;;;;5120796;27;20046;-71
2023/12/30 04:04:44;;;;;;;6.53;0.80;;;;;;;;;;5155822;27;20059;-71
2023/12/30 04:07:10;;;;;;;7.30;0.47;;;;;;;;;;5138430;27;20047;-71
2023/12/30 04:09:36;;;;;;;13.85;0.77;;;;;;;;;;5155996;27;20093;-71
2023/12/30 04:12:02;;;;;;;6.63;0.50;;;;;;;;;;5137880;27;20042;-71
2023/12/30 04:14:28;;;;;;;6.45;0.80;;;;;;;;;;5137392;27;20103;-72
2023/12/30 04:16:54;;;;;;;8.63;0.70;;;;;;;;;;5155763;27;20457;-72
2023/12/30 04:19:20;;;;;;;8.65;0.65;;;;;;;;;;5156411;27;20115;-72
2023/12/30 04:21:46;;;;;;;11.18;0.68;;;;;;;;;;5156227;27;20153;-71
2023/12/30 04:24:12;;;;;;;6.70;0.50;;;;;;;;;;5155528;27;20040;-70
2023/12/30 04:26:38;;;;;;;10.65;0.73;;;;;;;;;;5155411;27;20098;-72
2023/12/30 04:29:04;;;;;;;4.03;0.50;;;;;;;;;;5155517;27;20042;-72
2023/12/30 04:31:30;;;;;;;7.78;0.50;;;;;;;;;;5155407;27;20046;-71
2023/12/30 04:33:56;;;;;;;6.95;0.35;;;;;;;;;;5137160;27;20043;-72
2023/12/30 04:36:23;;;;;;;6.40;0.95;;;;;;;;;;5120039;27;20038;-71
2023/12/30 04:38:49;;;;;;;15.73;1.37;;;;;;;;;;5120074;27;20077;-71
2023/12/30 04:41:15;;;;;;;7.03;0.80;;;;;;;;;;5137089;27;20643;-72
2023/12/30 04:43:41;;;;;;;12.10;0.85;;;;;;;;;;5119753;27;20098;-72
2023/12/30 04:46:07;;;;;;;6.28;0.68;;;;;;;;;;5155302;27;20093;-70
2023/12/30 04:48:33;;;;;;;6.35;0.43;;;;;;;;;;5155137;27;20099;-70
2023/12/30 04:50:59;;;;;;;9.13;0.43;;;;;;;;;;5136972;27;20046;-71
2023/12/30 04:53:25;;;;;;;6.28;0.60;;;;;;;;;;5155152;27;20038;-71
2023/12/30 04:55:52;;;;;;;8.90;0.95;;;;;;;;;;5136832;27;20050;-71
2023/12/30 04:58:18;;;;;;;12.85;0.73;;;;;;;;;;5155204;27;20046;-71
2023/12/30 05:00:44;;;;;;;9.45;0.57;;;;;;;;;;5136754;27;20118;-71
2023/12/30 05:03:10;;;;;;;6.65;0.50;;;;;;;;;;5136692;27;20042;-71
2023/12/30 05:05:36;;;;;;;7.65;0.52;;;;;;;;;;5136514;27;20237;-71
2023/12/30 05:08:02;;;;;;;8.50;0.68;;;;;;;;;;5155170;27;20111;-71
2023/12/30 05:10:28;;;;;;;14.68;0.70;;;;;;;;;;5155588;27;20130;-71
2023/12/30 05:12:54;;;;;;;9.25;0.70;;;;;;;;;;5119877;27;20058;-71
2023/12/30 05:15:21;;;;;;;14.80;1.20;;;;;;;;;;5120152;27;20051;-71
2023/12/30 05:17:47;;;;;;;11.38;0.70;;;;;;;;;;5154953;27;20134;-71
2023/12/30 05:20:16;;;;;;;4.10;0.40;;;;;;;;;;5136637;27;20046;-71
2023/12/30 05:22:42;;;;;;;9.68;0.70;;;;;;;;;;5137595;27;20043;-71
2023/12/30 05:25:09;;;;;;;12.18;1.15;;;;;;;;;;5137701;27;20370;-71
2023/12/30 05:27:35;;;;;;;12.38;0.77;;;;;;;;;;5136582;27;20133;-72
2023/12/30 05:30:02;;;;;;;13.95;1.23;;;;;;;;;;5154995;27;20042;-72
2023/12/30 05:32:28;;;;;;;11.40;0.50;;;;;;;;;;5136518;27;20386;-72
2023/12/30 05:34:55;;;;;;;12.30;0.95;;;;;;;;;;5136623;27;20088;-72
2023/12/30 05:37:21;;;;;;;18.75;0.93;;;;;;;;;;5136570;27;20058;-72
2023/12/30 05:39:47;;;;;;;15.38;1.63;;;;;;;;;;5155602;27;20419;-73
2023/12/30 05:42:13;;;;;;;8.18;0.60;;;;;;;;;;5119686;27;20047;-71
2023/12/30 05:44:39;;;;;;;7.93;0.52;;;;;;;;;;5154681;27;20042;-73
2023/12/30 05:47:05;;;;;;;9.68;0.65;;;;;;;;;;5136288;27;20043;-71
2023/12/30 05:49:31;;;;;;;13.07;1.17;;;;;;;;;;5155156;27;20046;-72
2023/12/30 05:51:57;;;;;;;14.80;1.42;;;;;;;;;;5119091;27;20069;-72
2023/12/30 05:54:26;;;;;;;7.13;0.60;;;;;;;;;;5136386;27;20047;-71
2023/12/30 05:56:53;;;;;;;8.18;0.70;;;;;;;;;;5154583;27;20050;-72
2023/12/30 05:59:19;;;;;;;14.18;0.82;;;;;;;;;;5136693;27;20047;-72
2023/12/30 06:01:46;;;;;;;11.48;1.10;;;;;;;;;;5138785;27;20042;-71
2023/12/30 06:04:12;;;;;;;6.47;0.60;;;;;;;;;;5139566;27;20081;-71
2023/12/30 06:06:38;;;;;;;12.77;0.80;;;;;;;;;;5139939;27;20073;-72
2023/12/30 06:09:04;;;;;;;16.70;0.70;;;;;;;;;;5158124;27;20042;-72
2023/12/30 06:11:31;;;;;;;13.57;0.57;;;;;;;;;;5139829;27;20051;-71
2023/12/30 06:13:57;;;;;;;7.10;0.40;;;;;;;;;;5139789;27;20043;-71
2023/12/30 06:16:23;;;;;;;8.52;0.60;;;;;;;;;;5139820;27;20038;-71
2023/12/30 06:18:49;;;;;;;11.68;1.30;;;;;;;;;;5122395;27;20442;-71
2023/12/30 06:21:15;;;;;;;13.63;0.85;;;;;;;;;;5158516;27;20042;-72
2023/12/30 06:23:41;;;;;;;15.40;0.90;;;;;;;;;;5140117;27;20076;-72
2023/12/30 06:26:07;;;;;;;9.98;0.80;;;;;;;;;;5139396;27;20058;-71
2023/12/30 06:28:33;;;;;;;10.45;0.70;;;;;;;;;;5139314;27;20053;-71
2023/12/30 06:31:00;;;;;;;18.25;0.80;;;;;;;;;;5139225;27;20469;-71
2023/12/30 06:33:26;;;;;;;6.80;0.70;;;;;;;;;;5139790;27;20035;-72
2023/12/30 06:35:52;;;;;;;9.40;0.57;;;;;;;;;;5139671;27;20046;-73
2023/12/30 06:38:18;;;;;;;7.28;0.63;;;;;;;;;;5158208;27;20089;-71
2023/12/30 06:40:47;;;;;;;9.35;0.82;;;;;;;;;;5157525;27;20106;-71
2023/12/30 06:43:14;;;;;;;9.23;0.90;;;;;;;;;;5122309;27;20049;-72
2023/12/30 06:45:40;;;;;;;8.88;1.35;;;;;;;;;;5122001;27;20085;-72
2023/12/30 06:48:09;;;;;;;12.77;0.80;;;;;;;;;;5139466;27;20054;-72
2023/12/30 06:50:36;;;;;;;10.10;0.70;;;;;;;;;;5139982;27;20047;-71
2023/12/30 06:53:02;;;;;;;17.25;0.60;;;;;;;;;;5121967;27;20439;-71
2023/12/30 06:55:29;;;;;;;9.35;0.80;;;;;;;;;;5139412;27;20050;-72
2023/12/30 06:57:55;;;;;;;9.48;0.93;;;;;;;;;;5138763;27;20043;-72
2023/12/30 07:00:21;;;;;;;10.83;1.20;;;;;;;;;;5157410;27;20050;-71
2023/12/30 07:02:47;;;;;;;15.98;0.70;;;;;;;;;;5157049;27;20062;-72
2023/12/30 07:05:14;;;;;;;10.50;1.00;;;;;;;;;;5156813;27;20138;-72
2023/12/30 07:07:40;;;;;;;7.10;0.90;;;;;;;;;;5121835;27;20458;-72
2023/12/30 07:10:06;;;;;;;14.77;1.08;;;;;;;;;;5139476;27;20086;-71
2023/12/30 07:12:32;;;;;;;10.83;0.73;;;;;;;;;;5155570;27;20050;-71
2023/12/30 07:14:58;;;;;;;14.18;2.03;;;;;;;;;;5157710;27;20396;-72
2023/12/30 07:17:26;;;;;;;10.93;0.70;;;;;;;;;;5138332;27;20093;-71
2023/12/30 07:19:52;;;;;;;11.02;0.88;;;;;;;;;;5157248;27;20047;-70
2023/12/30 07:22:25;;;;;;;13.10;1.58;;;;;;;;;;5157235;27;20126;-72
2023/12/30 07:24:54;;;;;;;10.15;1.08;;;;;;;;;;5138621;27;20035;-72
2023/12/30 07:27:20;;;;;;;4.93;0.60;;;;;;;;;;5156310;27;20043;-70
2023/12/30 07:29:46;;;;;;;11.00;1.02;;;;;;;;;;5138119;27;20058;-72
2023/12/30 07:32:12;;;;;;;6.90;0.50;;;;;;;;;;5156534;27;20046;-71
2023/12/30 07:34:38;;;;;;;14.43;0.70;;;;;;;;;;5156508;27;20043;-72
2023/12/30 07:37:04;;;;;;;13.10;0.63;;;;;;;;;;5137520;27;20123;-72
2023/12/30 07:39:32;;;;;;;6.22;0.60;;;;;;;;;;5138144;27;20051;-72
2023/12/30 07:41:59;;;;;;;17.10;0.93;;;;;;;;;;5138726;27;20074;-71
2023/12/30 07:44:25;;;;;;;12.38;0.90;;;;;;;;;;5138674;27;20372;-72
2023/12/30 07:46:52;;;;;;;13.02;0.80;;;;;;;;;;5156193;27;20115;-73
2023/12/30 07:49:18;;;;;;;10.43;0.93;;;;;;;;;;5137969;27;20043;-72
2023/12/30 07:51:44;;;;;;;8.13;1.00;;;;;;;;;;5156200;27;20074;-71
2023/12/30 07:54:10;;;;;;;7.22;0.98;;;;;;;;;;5156019;27;20375;-71
2023/12/30 07:56:36;;;;;;;12.10;0.93;;;;;;;;;;5120509;27;20046;-72
2023/12/30 07:59:02;;;;;;;10.05;0.80;;;;;;;;;;5120560;27;20053;-71
2023/12/30 08:01:29;;;;;;;12.60;0.90;;;;;;;;;;5121485;27;20366;-72
2023/12/30 08:03:55;;;;;;;8.57;0.70;;;;;;;;;;5137645;27;20077;-71
2023/12/30 08:06:21;;;;;;;8.15;0.75;;;;;;;;;;5156426;27;20058;-72
2023/12/30 08:08:47;;;;;;;19.20;1.00;;;;;;;;;;5137597;27;20047;-73
2023/12/30 08:11:18;;;;;;;10.82;0.65;;;;;;;;;;5155768;27;20050;-71
2023/12/30 08:13:44;;;;;;;7.72;0.60;;;;;;;;;;5138374;27;20363;-72
2023/12/30 08:16:11;;;;;;;15.65;1.00;;;;;;;;;;5155894;27;20041;-71
2023/12/30 08:18:37;;;;;;;7.13;0.57;;;;;;;;;;5137393;27;20057;-71
2023/12/30 08:21:03;;;;;;;5.13;0.50;;;;;;;;;;5137343;27;20055;-71
2023/12/30 08:23:29;;;;;;;10.93;0.73;;;;;;;;;;5155536;27;20050;-70
2023/12/30 08:25:55;;;;;;;15.25;1.15;;;;;;;;;;5103172;27;20042;-72
2023/12/30 08:28:21;;;;;;;6.57;0.73;;;;;;;;;;5137028;27;20082;-71
2023/12/30 08:30:47;;;;;;;10.10;0.77;;;;;;;;;;5119997;27;20533;-72
2023/12/30 08:33:14;;;;;;;15.07;1.00;;;;;;;;;;5136916;27;20424;-71
2023/12/30 08:35:40;;;;;;;10.77;1.13;;;;;;;;;;5119981;27;20047;-71
2023/12/30 08:38:06;;;;;;;10.70;1.13;;;;;;;;;;5155476;27;20443;-71
2023/12/30 08:40:32;;;;;;;12.70;1.30;;;;;;;;;;5156014;27;20397;-71
2023/12/30 08:42:58;;;;;;;18.13;1.30;;;;;;;;;;5136730;27;20035;-72
2023/12/30 08:45:24;;;;;;;15.30;1.15;;;;;;;;;;5155211;27;20074;-72
2023/12/30 08:47:51;;;;;;;12.40;1.30;;;;;;;;;;5156052;27;20420;-72
2023/12/30 08:50:17;;;;;;;10.52;1.00;;;;;;;;;;5137519;27;20165;-72
2023/12/30 08:52:43;;;;;;;14.25;1.70;;;;;;;;;;5102934;27;20386;-73
2023/12/30 08:55:11;;;;;;;14.98;1.25;;;;;;;;;;5119757;27;20045;-72
2023/12/30 08:57:37;;;;;;;10.23;1.60;;;;;;;;;;5119888;27;20072;-72
2023/12/30 09:00:08;;;;;;;12.02;1.38;;;;;;;;;;5155015;27;20129;-71
2023/12/30 09:02:37;;;;;;;9.77;1.90;;;;;;;;;;5136738;27;20402;-72
2023/12/30 09:05:04;;;;;;;16.80;2.38;;;;;;;;;;5136266;27;20141;-71
2023/12/30 09:07:31;;;;;;;13.27;1.58;;;;;;;;;;5119376;27;20042;-73
2023/12/30 09:09:57;;;;;;;15.55;2.25;;;;;;;;;;5136571;27;20126;-72
2023/12/30 09:12:24;;;;;;;8.65;1.77;;;;;;;;;;5136650;27;20043;-71
2023/12/30 09:14:50;;;;;;;13.50;3.55;;;;;;;;;;5155182;27;20134;-72
2023/12/30 09:17:16;;;;;;;18.92;3.70;;;;;;;;;;5136484;27;20043;-72
2023/12/30 09:19:42;;;;;;;16.02;3.13;;;;;;;;;;5154815;27;20043;-71
2023/12/30 09:22:10;;;;;;;19.00;3.75;;;;;;;;;;5136489;27;20142;-71
2023/12/30 09:24:37;;;;;;;14.10;3.55;;;;;;;;;;5136550;27;20129;-71
2023/12/30 09:27:03;;;;;;;22.88;3.88;;;;;;;;;;5154568;27;20050;-72
2023/12/30 09:29:29;;;;;;;20.23;4.13;;;;;;;;;;5137241;27;20050;-72
2023/12/30 09:31:55;;;;;;;17.33;4.20;;;;;;;;;;5119362;27;20046;-72
2023/12/30 09:34:21;;;;;;;19.25;4.45;;;;;;;;;;5136820;27;20053;-71
2023/12/30 09:36:47;;;;;;;21.23;4.80;;;;;;;;;;5158049;27;20047;-71
2023/12/30 09:39:13;;;;;;;25.80;5.40;;;;;;;;;;5158263;27;20064;-72
2023/12/30 09:41:40;;;;;;;22.90;5.28;;;;;;;;;;5139871;27;20038;-72
2023/12/30 09:44:07;;;;;;;22.00;5.28;;;;;;;;;;5158150;27;20054;-72
2023/12/30 09:46:35;;;;;;;19.90;5.35;;;;;;;;;;5140015;27;20046;-73
2023/12/30 09:49:03;;;;;;;24.13;6.38;;;;;;;;;;5159360;27;20182;-72
2023/12/30 09:51:32;;;;;;;25.98;6.90;;;;;;;;;;5140117;27;20046;-72
2023/12/30 09:53:59;;;;;;;26.48;6.75;;;;;;;;;;5158457;27;20051;-72
2023/12/30 09:56:26;;;;;;;21.42;6.40;;;;;;;;;;5158270;27;20046;-71
2023/12/30 09:58:53;;;;;;;25.20;6.47;;;;;;;;;;5140131;27;20050;-72
2023/12/30 10:01:20;;;;;;;24.08;6.60;;;;;;;;;;5139515;27;20042;-71
2023/12/30 10:03:46;;;;;;;25.55;7.75;;;;;;;;;;5139302;27;20078;-72
2023/12/30 10:06:17;;;;;;;19.88;6.05;;;;;;;;;;5158166;27;20061;-72
2023/12/30 10:08:44;;;;;;;24.40;5.75;;;;;;;;;;5140658;27;20415;-72
2023/12/30 10:11:10;;;;;;;17.70;5.75;;;;;;;;;;5158513;27;20046;-72
2023/12/30 10:13:37;;;;;;;23.10;4.40;;;;;;;;;;5139090;27;20050;-72
2023/12/30 10:16:05;;;;;;;20.83;5.03;;;;;;;;;;5139688;27;20390;-72
2023/12/30 10:18:34;;;;;;;18.55;4.18;;;;;;;;;;5122442;27;20099;-71
2023/12/30 10:21:02;;;;;;;24.38;4.18;;;;;;;;;;5157476;27;20509;-73
2023/12/30 10:23:29;;;;;;;13.20;2.85;;;;;;;;;;5157660;27;20043;-72
2023/12/30 10:25:55;;;;;;;14.35;2.55;;;;;;;;;;5157885;27;20051;-73
2023/12/30 10:28:21;;;;;;;8.70;2.10;;;;;;;;;;5157631;27;20158;-73
2023/12/30 10:30:47;;;;;;;15.95;2.53;;;;;;;;;;5157580;27;20042;-72
2023/12/30 10:33:14;;;;;;;13.13;2.13;;;;;;;;;;5138946;27;20074;-72
2023/12/30 10:35:41;;;;;;;12.07;1.55;;;;;;;;;;5157527;27;20043;-72
2023/12/30 10:38:10;;;;;;;10.23;1.98;;;;;;;;;;5139198;27;20381;-71
2023/12/30 10:40:38;;;;;;;12.50;1.63;;;;;;;;;;5157901;27;20070;-72
2023/12/30 10:43:04;;;;;;;;;;;;;;;;;;5122597;27;20436;-73
2023/12/30 10:45:30;;;;;;;8.88;1.88;;;;;;;;;;5157328;27;19919;-72
2023/12/30 10:47:58;;;;;;;9.27;1.60;;;;;;;;;;5157176;27;20404;-72
2023/12/30 10:50:26;;;;;;;13.23;2.00;;;;;;;;;;5157182;27;20371;-72
2023/12/30 10:53:01;;;;;;;8.60;1.50;;;;;;;;;;5138874;27;20057;-74
2023/12/30 10:55:30;;;;;;;10.63;1.40;;;;;;;;;;5138674;27;20061;-73
2023/12/30 10:58:01;;;;;;;7.28;1.50;;;;;;;;;;5138237;27;20047;-73
2023/12/30 11:00:27;;;;;;;16.25;2.55;;;;;;;;;;5138150;27;20564;-72
2023/12/30 11:02:54;;;;;;;11.93;1.95;;;;;;;;;;5156926;27;20047;-72
2023/12/30 11:05:28;;;;;;;11.88;2.45;;;;;;;;;;5138649;27;20046;-73
2023/12/30 11:07:54;;;;;;;11.38;1.85;;;;;;;;;;5157091;27;20046;-73
2023/12/30 11:10:21;;;;;;;12.00;1.75;;;;;;;;;;5138520;27;20078;-71
2023/12/30 11:12:47;;;;;;;11.65;1.90;;;;;;;;;;5156883;27;20046;-73
2023/12/30 11:15:26;;;;;;;10.10;1.42;;;;;;;;;;5157418;27;20082;-74
2023/12/30 11:17:52;;;;;;;18.45;2.25;;;;;;;;;;5139163;27;20393;-73
2023/12/30 11:20:28;;;;;;;13.02;1.95;;;;;;;;;;5157142;27;20046;-74
2023/12/30 11:22:55;;;;;;;13.52;1.75;;;;;;;;;;5157225;27;20125;-73
2023/12/30 11:25:21;;;;;;;13.98;1.83;;;;;;;;;;5157100;27;20046;-73
2023/12/30 11:27:48;;;;;;;11.70;1.53;;;;;;;;;;5157021;27;20047;-74
2023/12/30 11:30:17;;;;;;;11.00;1.38;;;;;;;;;;5138535;27;20043;-72
2023/12/30 11:32:45;;;;;;;14.35;1.92;;;;;;;;;;5156887;27;20047;-71
2023/12/30 11:35:13;;;;;;;17.15;3.00;;;;;;;;;;5156745;27;20450;-72
2023/12/30 11:37:40;;;;;;;12.50;1.63;;;;;;;;;;5156241;27;20051;-72
2023/12/30 11:40:09;;;;;;;15.25;2.45;;;;;;;;;;5137608;27;20498;-73
2023/12/30 11:42:35;;;;;;;13.13;2.05;;;;;;;;;;5137719;27;20090;-73
2023/12/30 11:45:02;;;;;;;10.43;1.63;;;;;;;;;;5156377;27;20085;-76
2023/12/30 11:47:30;;;;;;;13.80;2.95;;;;;;;;;;5137718;27;20180;-72
2023/12/30 11:50:03;;;;;;;12.95;1.88;;;;;;;;;;5120791;27;20107;-73
2023/12/30 11:52:29;;;;;;;10.70;1.83;;;;;;;;;;5156432;27;20131;-73
2023/12/30 11:54:55;;;;;;;11.23;2.28;;;;;;;;;;5138705;27;20058;-73
2023/12/30 11:57:21;;;;;;;11.48;1.70;;;;;;;;;;5138344;27;20054;-74
2023/12/30 11:59:47;;;;;;;16.30;1.75;;;;;;;;;;5137680;27;20046;-73
2023/12/30 12:02:14;;;;;;;17.45;2.38;;;;;;;;;;5120692;27;20073;-72
2023/12/30 12:04:40;;;;;;;14.35;2.08;;;;;;;;;;5155240;27;20478;-72
2023/12/30 12:07:07;;;;;;;10.48;2.13;;;;;;;;;;5155740;27;20054;-72
2023/12/30 12:09:33;;;;;;;14.73;2.53;;;;;;;;;;5155679;27;20095;-71
2023/12/30 12:11:59;;;;;;;11.27;1.85;;;;;;;;;;5155595;27;20042;-71
2023/12/30 12:14:25;;;;;;;11.60;2.05;;;;;;;;;;5137645;27;20074;-71
2023/12/30 12:16:51;;;;;;;20.67;2.70;;;;;;;;;;5155319;27;20486;-71
2023/12/30 12:19:18;;;;;;;10.52;2.30;;;;;;;;;;5155553;27;20049;-71
2023/12/30 12:21:45;;;;;;;14.05;2.50;;;;;;;;;;5155479;27;20074;-71
2023/12/30 12:24:11;;;;;;;7.95;2.10;;;;;;;;;;5155369;27;20039;-72
2023/12/30 12:26:37;;;;;;;15.27;4.15;;;;;;;;;;5155311;27;20089;-71
2023/12/30 12:29:07;;;;;;;14.55;3.70;;;;;;;;;;5155895;27;20046;-72
2023/12/30 12:31:33;;;;;;;17.80;4.47;;;;;;;;;;5136962;27;20035;-72
2023/12/30 12:34:00;;;;;;;18.30;3.30;;;;;;;;;;5155030;27;20045;-71
2023/12/30 12:36:26;;;;;;;15.50;3.13;;;;;;;;;;5136770;27;20059;-72
2023/12/30 12:38:52;;;;;;;11.10;2.78;;;;;;;;;;5155145;27;20179;-72
2023/12/30 12:41:18;;;;;;;12.10;3.15;;;;;;;;;;5155186;27;20042;-70
2023/12/30 12:43:44;;;;;;;15.15;2.55;;;;;;;;;;5155540;27;20041;-71
2023/12/30 12:46:11;;;;;;;22.15;3.30;;;;;;;;;;5102811;27;20058;-72
2023/12/30 12:48:38;;;;;;;15.17;3.23;;;;;;;;;;5136728;27;20042;-70
2023/12/30 12:51:04;;;;;;;16.92;3.05;;;;;;;;;;5137356;27;20053;-70
2023/12/30 12:53:30;;;;;;;15.02;3.25;;;;;;;;;;5155800;27;20038;-72
2023/12/30 12:55:56;;;;;;;20.25;3.35;;;;;;;;;;5155449;27;20107;-71
2023/12/30 12:58:22;;;;;;;12.45;2.97;;;;;;;;;;5136503;27;20053;-72
2023/12/30 13:00:48;;;;;;;15.95;3.00;;;;;;;;;;5136571;27;20047;-72
2023/12/30 13:03:14;;;;;;;15.52;2.97;;;;;;;;;;5154883;27;20061;-71
2023/12/30 13:05:40;;;;;;;19.67;3.45;;;;;;;;;;5119069;27;20057;-70
2023/12/30 13:08:08;;;;;;;14.88;3.10;;;;;;;;;;5119601;27;20103;-71
2023/12/30 13:10:42;;;;;;;18.92;3.45;;;;;;;;;;5138102;27;20043;-71
2023/12/30 13:13:08;;;;;;;15.93;2.85;;;;;;;;;;5159233;27;20039;-72
2023/12/30 13:15:34;;;;;;;15.07;3.50;;;;;;;;;;5159500;27;20038;-70
2023/12/30 13:18:01;;;;;;;16.55;3.08;;;;;;;;;;5159068;27;20051;-72
2023/12/30 13:20:27;;;;;;;13.38;2.80;;;;;;;;;;5140759;27;20110;-72
2023/12/30 13:22:57;;;;;;;14.77;2.90;;;;;;;;;;5140394;27;20046;-72
2023/12/30 13:25:29;;;;;;;15.43;2.97;;;;;;;;;;5158970;27;20111;-72
2023/12/30 13:27:56;;;;;;;19.13;3.10;;;;;;;;;;5159426;27;20053;-71
2023/12/30 13:30:25;;;;;;;16.30;3.05;;;;;;;;;;5158827;27;20171;-71
2023/12/30 13:32:56;;;;;;;13.25;3.42;;;;;;;;;;5123534;27;20489;-72
2023/12/30 13:35:25;;;;;;;14.25;3.60;;;;;;;;;;5124153;27;20054;-72
2023/12/30 13:37:55;;;;;;;17.15;3.45;;;;;;;;;;5158684;27;20047;-72
2023/12/30 13:40:21;;;;;;;23.95;4.57;;;;;;;;;;5158669;27;20039;-72
2023/12/30 13:42:49;;;;;;;22.15;3.72;;;;;;;;;;5158507;27;20169;-72
2023/12/30 13:45:15;;;;;;;21.73;5.22;;;;;;;;;;5140172;27;20082;-73
2023/12/30 13:50:18;;;;;;;17.98;4.60;;;;;;;;;;5140965;27;20157;-72
2023/12/30 13:52:46;;;;;;;19.23;5.10;;;;;;;;;;5159023;27;20054;-72
2023/12/30 13:55:17;;;;;;;23.50;5.32;;;;;;;;;;5140137;27;20046;-72
2023/12/30 13:57:45;;;;;;;24.00;4.82;;;;;;;;;;5158485;27;20050;-71
2023/12/30 14:00:13;;;;;;;20.75;5.28;;;;;;;;;;5158460;27;20130;-72
2023/12/30 14:02:40;;;;;;;19.88;5.32;;;;;;;;;;5158580;27;20046;-72
2023/12/30 14:05:18;;;;;;;20.38;4.20;;;;;;;;;;5158158;27;20094;-71
2023/12/30 14:07:44;;;;;;;17.70;4.50;;;;;;;;;;5158360;27;20443;-72
2023/12/30 14:10:12;;;;;;;20.63;4.50;;;;;;;;;;5140056;27;20047;-70
2023/12/30 14:12:41;;;;;;;21.92;4.82;;;;;;;;;;5158066;27;20043;-70
2023/12/30 14:15:12;;;;;;;19.20;4.40;;;;;;;;;;5140352;27;20051;-71
2023/12/30 14:17:42;;;;;;;20.70;5.30;;;;;;;;;;5158003;27;20132;-72
2023/12/30 14:20:10;;;;;;;22.05;4.97;;;;;;;;;;5157917;27;20118;-71
2023/12/30 14:22:37;;;;;;;33.20;6.88;;;;;;;;;;5158016;27;20046;-72
2023/12/30 14:25:07;;;;;;;21.75;5.35;;;;;;;;;;5122426;27;20454;-71
2023/12/30 14:27:34;;;;;;;24.13;5.95;;;;;;;;;;5158121;27;20477;-70
2023/12/30 14:30:01;;;;;;;25.23;5.32;;;;;;;;;;5139391;27;20054;-71
2023/12/30 14:32:27;;;;;;;15.50;4.85;;;;;;;;;;5139426;27;20079;-70
2023/12/30 14:34:57;;;;;;;20.73;4.82;;;;;;;;;;5138818;27;20042;-72